Flight Track Log - Related Links

Times and Time Zones

All times are in EDT time to prevent confusion due to time zone crossing. See the SLI158 flight status page for this flight to view local times or setup timezone preferences in your user account.

Time Position Orientation Groundspeed Altitude Reporting Facility
EDT Latitude Longitude Course Direction KTS MPH feet Rate Location/Type
Fri 01:29:00 PM 19.9228 -99.7886 306° West  Level Estimated
Fri 01:30:00 PM 19.9767 -99.8685 306° West  Level Estimated
Fri 01:31:00 PM 20.0305 -99.9484 306° West  Level Estimated
Fri 01:32:00 PM 20.0843 -100.0284 306° West  Level Estimated
Fri 01:33:00 PM 20.1381 -100.1084 306° West  Level Estimated
Fri 01:34:00 PM 20.1918 -100.1885 306° West  Level Estimated
Fri 01:35:00 PM 20.2455 -100.2687 306° West  Level Estimated
Fri 01:36:00 PM 20.2992 -100.3489 306° West  Level Estimated
Fri 01:37:00 PM 20.3528 -100.4292 305° West  Level Estimated
Fri 01:38:00 PM 20.4064 -100.5095 305° West  Level Estimated
Fri 01:39:00 PM 20.4599 -100.5899 305° West  Level Estimated
Fri 01:40:00 PM 20.5134 -100.6703 305° West  Level Estimated
Fri 01:41:00 PM 20.5669 -100.7508 305° West  Level Estimated
Fri 01:42:00 PM 20.6203 -100.8313 305° West  Level Estimated
Fri 01:43:00 PM 20.6737 -100.9119 305° West  Level Estimated
Fri 01:44:00 PM 20.7271 -100.9926 305° West  Level Estimated
Fri 01:45:00 PM 20.7804 -101.0733 305° West  Level Estimated
Fri 01:46:00 PM 20.8337 -101.1541 305° West  Level Estimated
Fri 01:47:00 PM 20.8870 -101.2349 305° West  Level Estimated
Fri 01:48:00 PM 20.9402 -101.3158 305° West  Level Estimated
Fri 01:49:00 PM 20.9934 -101.3968 305° West  Level Estimated
Fri 01:50:00 PM 21.0465 -101.4778 305° West  Level Estimated
Fri 01:51:00 PM 21.0996 -101.5588 305° West  Level Estimated
Fri 01:52:00 PM 21.1527 -101.6399 305° West  Level Estimated
Fri 01:53:00 PM 21.2057 -101.7211 305° West  Level Estimated
Fri 01:54:00 PM 21.2587 -101.8024 305° West  Level Estimated
Fri 01:55:00 PM 21.3116 -101.8836 305° West  Level Estimated
Fri 01:56:00 PM 21.3645 -101.9650 305° West  Level Estimated
Fri 01:57:00 PM 21.4174 -102.0464 305° West  Level Estimated
Fri 01:58:00 PM 21.4702 -102.1279 305° West  Level Estimated
Fri 01:59:00 PM 21.5230 -102.2094 305° West  Level Estimated
Fri 02:00:00 PM 21.5757 -102.2910 305° West  Level Estimated
Fri 02:01:00 PM 21.6284 -102.3726 305° West  Level Estimated
Fri 02:02:00 PM 21.6811 -102.4544 305° West  Level Estimated
Fri 02:03:00 PM 21.7337 -102.5361 305° West  Level Estimated
Fri 02:04:00 PM 21.7863 -102.6180 305° West  Level Estimated
Fri 02:05:00 PM 21.8389 -102.6998 305° West  Level Estimated
Fri 02:06:00 PM 21.8914 -102.7818 305° West  Level Estimated
Fri 02:07:00 PM 21.9438 -102.8638 305° West  Level Estimated
Fri 02:08:00 PM 21.9963 -102.9459 305° West  Level Estimated
Fri 02:09:00 PM 22.0486 -103.0280 305° West  Level Estimated
Fri 02:10:00 PM 22.1010 -103.1102 305° West  Level Estimated
Fri 02:11:00 PM 22.1533 -103.1924 304° West  Level Estimated
Fri 02:12:00 PM 22.2055 -103.2747 304° West  Level Estimated
Fri 02:13:00 PM 22.2577 -103.3571 304° West  Level Estimated
Fri 02:14:00 PM 22.3099 -103.4396 304° West  Level Estimated
Fri 02:15:00 PM 22.3621 -103.5220 304° West  Level Estimated
Fri 02:16:00 PM 22.4142 -103.6046 304° West  Level Estimated
Fri 02:17:00 PM 22.4662 -103.6872 304° West  Level Estimated
Fri 02:18:00 PM 22.5182 -103.7699 304° West  Level Estimated
Fri 02:19:00 PM 22.5702 -103.8527 304° West  Level Estimated
Fri 02:20:00 PM 22.6221 -103.9355 304° West  Level Estimated
Fri 02:21:00 PM 22.6740 -104.0183 304° West  Level Estimated
Fri 02:22:00 PM 22.7258 -104.1013 304° West  Level Estimated
Fri 02:23:00 PM 22.7776 -104.1842 304° West  Level Estimated
Fri 02:24:00 PM 22.8294 -104.2673 304° West  Level Estimated
Fri 02:25:00 PM 22.8811 -104.3504 304° West  Level Estimated
Fri 02:26:00 PM 22.9328 -104.4336 304° West  Level Estimated
Fri 02:27:00 PM 22.9844 -104.5169 304° West  Level Estimated
Fri 02:28:00 PM 23.0359 -104.6002 304° West  Level Estimated
Fri 02:29:00 PM 23.0875 -104.6835 304° West  Level Estimated
Fri 02:30:00 PM 23.1390 -104.7670 304° West  Level Estimated
Fri 02:31:00 PM 23.1904 -104.8505 304° West  Level Estimated
Fri 02:32:00 PM 23.2418 -104.9341 304° West  Level Estimated
Fri 02:33:00 PM 23.2932 -105.0177 304° West  Level Estimated
Fri 02:34:00 PM 23.3445 -105.1014 304° West  Level Estimated
Fri 02:35:00 PM 23.3958 -105.1851 304° West  Level Estimated
Fri 02:36:00 PM 23.4470 -105.2690 304° West  Level Estimated
Fri 02:37:00 PM 23.4982 -105.3529 304° West  Level Estimated
Fri 02:38:00 PM 23.5493 -105.4368 304° West  Level Estimated
Fri 02:39:00 PM 23.6004 -105.5208 304° West  Level Estimated
Fri 02:40:00 PM 23.6515 -105.6049 304° West  Level Estimated
Fri 02:41:00 PM 23.7025 -105.6891 304° West  Level Estimated
Fri 02:42:00 PM 23.7534 -105.7733 303° West  Level Estimated
Fri 02:43:00 PM 23.8043 -105.8576 303° West  Level Estimated
Fri 02:44:00 PM 23.8552 -105.9419 303° West  Level Estimated
Fri 02:45:00 PM 23.9060 -106.0264 303° West  Level Estimated
Fri 02:46:00 PM 23.9568 -106.1108 303° West  Level Estimated
Fri 02:47:00 PM 24.0075 -106.1954 303° West  Level Estimated
Fri 02:48:00 PM 24.0582 -106.2800 303° West  Level Estimated
Fri 02:49:00 PM 24.1088 -106.3647 303° West  Level Estimated
Fri 02:50:00 PM 24.1594 -106.4494 303° West  Level Estimated
Fri 02:51:00 PM 24.2100 -106.5342 303° West  Level Estimated
Fri 02:52:00 PM 24.2605 -106.6191 303° West  Level Estimated
Fri 02:53:00 PM 24.3109 -106.7041 303° West  Level Estimated
Fri 02:54:00 PM 24.3613 -106.7891 303° West  Level Estimated
Fri 02:55:00 PM 24.4117 -106.8742 303° West  Level Estimated
Fri 02:56:00 PM 24.4620 -106.9593 303° West  Level Estimated
Fri 02:57:00 PM 24.5122 -107.0445 303° West  Level Estimated
Fri 02:58:00 PM 24.5624 -107.1298 303° West  Level Estimated
Fri 02:59:00 PM 24.6126 -107.2152 303° West  Level Estimated
Fri 03:00:00 PM 24.6627 -107.3006 303° West  Level Estimated
Fri 03:01:00 PM 24.7128 -107.3861 303° West  Level Estimated
Fri 03:02:00 PM 24.7628 -107.4717 303° West  Level Estimated
Fri 03:03:00 PM 24.7645 -107.4747 303° West  Level Estimated
Fri 03:04:00 PM 24.7645 -107.4747 138° Southeast  Level Estimated
Fri 03:05:00 PM 24.7645 -107.4747 138° Southeast  Level Estimated
Fri 03:06:00 PM 24.7645 -107.4747 138° Southeast  Level Estimated
Fri 03:07:00 PM 24.7645 -107.4747 138° Southeast  Level Estimated
Fri 03:08:00 PM 24.7645 -107.4747 138° Southeast  Level Estimated
Fri 03:09:00 PM 24.7645 -107.4747 138° Southeast  Level Estimated
Fri 03:10:00 PM 24.7645 -107.4747 138° Southeast  Level Estimated
Fri 03:11:00 PM 24.7645 -107.4747 138° Southeast  Level Estimated
Fri 03:12:00 PM 24.7645 -107.4747 138° Southeast  Level Estimated
Fri 03:13:00 PM 24.7645 -107.4747 138° Southeast  Level Estimated

Login

Don't have an account? Register now (free) for customized features, flight alerts, and more!